createdAt,value
2023-02-12T00:01:08.935Z,41.95
2023-02-12T00:03:35.959Z,36.80
2023-02-12T00:06:02.433Z,37.17
2023-02-12T00:08:29.000Z,38.60
2023-02-12T00:10:55.386Z,38.78
2023-02-12T00:13:21.712Z,40.17
2023-02-12T00:15:48.220Z,36.53
2023-02-12T00:18:15.517Z,36.42
2023-02-12T00:20:41.948Z,38.70
2023-02-12T00:23:08.357Z,38.72
2023-02-12T00:25:34.811Z,37.08
2023-02-12T00:28:01.180Z,37.83
2023-02-12T00:30:27.553Z,37.70
2023-02-12T00:32:55.099Z,36.03
2023-02-12T00:35:21.502Z,35.83
2023-02-12T00:37:49.716Z,35.30
2023-02-12T00:40:16.223Z,34.03
2023-02-12T00:42:42.574Z,32.42
2023-02-12T00:45:09.281Z,32.45
2023-02-12T00:47:35.583Z,32.97
2023-02-12T00:50:02.038Z,31.92
2023-02-12T00:52:28.341Z,32.13
2023-02-12T00:54:54.682Z,31.20
2023-02-12T00:57:21.153Z,30.55
2023-02-12T00:59:49.164Z,32.65
2023-02-12T01:02:18.011Z,31.50
2023-02-12T01:04:44.916Z,30.95
2023-02-12T01:07:11.261Z,30.92
2023-02-12T01:09:37.641Z,32.67
2023-02-12T01:12:04.280Z,31.48
2023-02-12T01:14:30.610Z,32.38
2023-02-12T01:16:58.188Z,30.30
2023-02-12T01:19:24.626Z,30.38
2023-02-12T01:21:51.013Z,30.98
2023-02-12T01:24:17.338Z,30.40
2023-02-12T01:26:43.823Z,32.25
2023-02-12T01:29:10.561Z,31.52
2023-02-12T01:31:39.317Z,34.17
2023-02-12T01:34:06.695Z,33.20
2023-02-12T01:36:33.690Z,32.28
2023-02-12T01:39:02.560Z,30.13
2023-02-12T01:41:32.539Z,32.30
2023-02-12T01:44:11.560Z,32.55
2023-02-12T01:46:38.977Z,32.45
2023-02-12T01:49:09.585Z,32.17
2023-02-12T01:51:36.368Z,31.58
2023-02-12T01:54:07.287Z,31.45
2023-02-12T01:56:34.487Z,31.65
2023-02-12T01:59:01.018Z,31.25
2023-02-12T02:01:30.792Z,31.35
2023-02-12T02:04:03.326Z,32.10
2023-02-12T02:06:36.073Z,30.33
2023-02-12T02:09:04.411Z,31.83
2023-02-12T02:11:50.647Z,33.08
2023-02-12T02:14:32.613Z,31.27
2023-02-12T02:17:43.656Z,30.50
2023-02-12T02:20:42.779Z,31.50
2023-02-12T02:23:16.442Z,31.73
2023-02-12T02:26:10.429Z,32.78
2023-02-12T02:28:58.303Z,32.80
2023-02-12T02:31:33.913Z,31.77
2023-02-12T02:34:12.350Z,31.08
2023-02-12T02:37:16.415Z,31.00
2023-02-12T02:40:02.496Z,31.90
2023-02-12T02:42:46.589Z,29.77
2023-02-12T02:45:20.764Z,31.58
2023-02-12T02:48:04.309Z,33.80
2023-02-12T02:50:34.601Z,32.33
2023-02-12T02:53:12.366Z,32.53
2023-02-12T02:55:45.148Z,33.00
2023-02-12T02:58:20.567Z,32.17
2023-02-12T03:01:04.557Z,32.88
2023-02-12T03:03:34.409Z,32.35
2023-02-12T03:06:26.910Z,31.48
2023-02-12T03:09:00.160Z,32.28
2023-02-12T03:11:34.285Z,32.45
2023-02-12T03:14:10.113Z,33.47
2023-02-12T03:16:46.030Z,33.15
2023-02-12T03:19:18.901Z,33.88
2023-02-12T03:22:02.256Z,30.65
2023-02-12T03:24:47.014Z,32.10
2023-02-12T03:27:19.079Z,32.88
2023-02-12T03:29:46.081Z,30.52
2023-02-12T03:32:33.722Z,31.35
2023-02-12T03:35:21.393Z,33.72
2023-02-12T03:38:07.983Z,34.72
2023-02-12T03:40:40.200Z,32.65
2023-02-12T03:43:15.782Z,34.40
2023-02-12T03:46:08.090Z,33.22
2023-02-12T03:48:46.113Z,33.63
2023-02-12T03:51:25.226Z,35.42
2023-02-12T03:53:51.927Z,34.25
2023-02-12T03:56:25.234Z,32.97
2023-02-12T03:58:51.676Z,33.83
2023-02-12T04:01:18.609Z,32.40
2023-02-12T04:03:45.164Z,33.38
2023-02-12T04:06:26.871Z,34.72
2023-02-12T04:08:55.435Z,34.65
2023-02-12T04:12:01.860Z,35.65
2023-02-12T04:14:44.346Z,32.35
2023-02-12T04:17:29.971Z,35.60
2023-02-12T04:20:15.128Z,31.92
2023-02-12T04:22:59.033Z,33.05
2023-02-12T04:25:40.283Z,31.67
2023-02-12T04:28:22.466Z,33.17
2023-02-12T04:31:20.403Z,31.40
2023-02-12T04:33:54.861Z,31.05
2023-02-12T04:36:24.574Z,30.98
2023-02-12T04:38:55.796Z,29.73
2023-02-12T04:43:48.453Z,32.25
2023-02-12T04:46:14.786Z,30.85
2023-02-12T04:48:53.465Z,31.20
2023-02-12T04:51:20.159Z,30.52
2023-02-12T04:53:46.842Z,31.02
2023-02-12T04:56:13.482Z,32.97
2023-02-12T04:58:41.169Z,31.35
2023-02-12T05:01:08.957Z,32.53
2023-02-12T05:03:35.957Z,34.15
2023-02-12T05:06:06.969Z,31.67
2023-02-12T05:08:33.565Z,32.30
2023-02-12T05:11:08.244Z,33.95
2023-02-12T05:13:35.288Z,31.80
2023-02-12T05:16:06.492Z,33.13
2023-02-12T05:21:02.069Z,32.13
2023-02-12T05:23:30.581Z,33.88
2023-02-12T05:26:02.290Z,33.83
2023-02-12T05:28:28.768Z,34.13
2023-02-12T05:30:55.495Z,35.85
2023-02-12T05:33:21.827Z,36.13
2023-02-12T05:35:48.373Z,34.88
2023-02-12T05:38:14.681Z,34.65
2023-02-12T05:40:42.946Z,33.78
2023-02-12T05:43:10.485Z,33.10
2023-02-12T05:45:37.956Z,32.65
2023-02-12T05:48:04.398Z,34.80
2023-02-12T05:50:30.728Z,32.05
2023-02-12T05:53:00.978Z,32.80
2023-02-12T05:55:27.755Z,33.88
2023-02-12T05:57:54.506Z,33.88
2023-02-12T06:00:21.278Z,33.83
2023-02-12T06:02:47.778Z,34.42
2023-02-12T06:05:14.231Z,35.28
2023-02-12T06:07:40.524Z,34.63
2023-02-12T06:10:07.605Z,33.05
2023-02-12T06:12:33.903Z,34.33
2023-02-12T06:15:00.313Z,33.75
2023-02-12T06:17:26.779Z,34.17
2023-02-12T06:19:53.091Z,34.50
2023-02-12T06:22:19.426Z,33.97
2023-02-12T06:24:45.715Z,35.83
2023-02-12T06:27:12.081Z,34.30
2023-02-12T06:29:38.421Z,34.97
2023-02-12T06:32:05.018Z,34.08
2023-02-12T06:34:31.409Z,36.42
2023-02-12T06:36:57.776Z,37.70
2023-02-12T06:39:24.279Z,36.47
2023-02-12T06:41:50.662Z,38.80
2023-02-12T06:44:17.116Z,38.45
2023-02-12T06:46:43.465Z,37.25
2023-02-12T06:49:12.544Z,36.35
2023-02-12T06:51:41.090Z,37.03
2023-02-12T06:54:13.081Z,38.53
2023-02-12T06:56:39.459Z,35.47
2023-02-12T06:59:05.739Z,35.63
2023-02-12T07:01:32.043Z,35.20
2023-02-12T07:04:01.935Z,34.67
2023-02-12T07:06:29.785Z,34.28
2023-02-12T07:08:57.068Z,36.05
2023-02-12T07:11:25.137Z,37.55
2023-02-12T07:13:51.430Z,37.65
2023-02-12T07:16:18.064Z,36.80
2023-02-12T07:18:45.442Z,38.53
2023-02-12T07:21:13.529Z,39.92
2023-02-12T07:23:40.271Z,37.42
2023-02-12T07:26:17.012Z,37.78
2023-02-12T07:28:44.271Z,37.40
2023-02-12T07:31:16.608Z,37.63
2023-02-12T07:33:43.928Z,36.22
2023-02-12T07:36:15.532Z,37.35
2023-02-12T07:38:42.387Z,35.92
2023-02-12T07:41:14.437Z,37.03
2023-02-12T07:43:43.368Z,40.33
2023-02-12T07:46:18.549Z,38.70
2023-02-12T07:48:46.498Z,42.58
2023-02-12T07:51:15.044Z,47.17
2023-02-12T07:53:42.073Z,52.72
2023-02-12T07:56:16.853Z,50.92
2023-02-12T07:58:45.043Z,45.72
2023-02-12T08:01:23.436Z,42.60
2023-02-12T08:03:51.315Z,37.30
2023-02-12T08:06:24.134Z,36.33
2023-02-12T08:08:52.200Z,36.00
2023-02-12T08:11:18.759Z,39.95
2023-02-12T08:13:45.989Z,40.17
2023-02-12T08:16:15.507Z,43.00
2023-02-12T08:18:42.532Z,53.03
2023-02-12T08:21:13.196Z,47.08
2023-02-12T08:23:40.077Z,45.08
2023-02-12T08:26:14.138Z,62.42
2023-02-12T08:28:51.221Z,75.95
2023-02-12T08:31:23.086Z,77.75
2023-02-12T08:33:51.611Z,57.25
2023-02-12T08:36:20.551Z,49.97
2023-02-12T08:38:47.861Z,56.33
2023-02-12T08:41:26.677Z,54.63
2023-02-12T08:43:55.398Z,49.15
2023-02-12T08:46:24.862Z,45.25
2023-02-12T08:49:03.517Z,72.78
2023-02-12T08:51:32.892Z,62.88
2023-02-12T08:54:01.692Z,55.40
2023-02-12T08:56:32.464Z,47.00
2023-02-12T08:58:59.992Z,45.78
2023-02-12T09:01:29.442Z,45.10
2023-02-12T09:03:56.355Z,47.72
2023-02-12T09:06:24.240Z,56.92
2023-02-12T09:08:51.454Z,48.75
2023-02-12T09:11:32.011Z,47.70
2023-02-12T09:14:00.477Z,50.33
2023-02-12T09:16:28.719Z,50.40
2023-02-12T09:18:55.552Z,48.47
2023-02-12T09:21:22.129Z,49.17
2023-02-12T09:23:49.071Z,53.05
2023-02-12T09:26:25.921Z,49.75
2023-02-12T09:28:53.309Z,50.87
2023-02-12T09:31:26.218Z,53.47
2023-02-12T09:34:03.959Z,52.25
2023-02-12T09:36:31.316Z,52.10
2023-02-12T09:38:59.222Z,47.60
2023-02-12T09:42:07.146Z,46.72
2023-02-12T09:44:41.353Z,49.25
2023-02-12T09:47:43.911Z,49.03
2023-02-12T09:50:46.584Z,47.47
2023-02-12T09:53:17.251Z,44.38
2023-02-12T09:55:43.962Z,42.45
2023-02-12T09:58:16.354Z,38.60
2023-02-12T10:00:44.433Z,41.92
2023-02-12T10:03:16.949Z,41.97
2023-02-12T10:05:51.117Z,45.33
2023-02-12T10:08:47.359Z,51.08
2023-02-12T10:11:37.804Z,47.13
2023-02-12T10:14:21.116Z,46.30
2023-02-12T10:17:31.041Z,42.78
2023-02-12T10:20:31.809Z,43.80
2023-02-12T10:23:29.367Z,42.13
2023-02-12T10:25:59.713Z,41.70
2023-02-12T10:28:39.635Z,40.50
2023-02-12T10:31:15.167Z,41.88
2023-02-12T10:33:45.617Z,41.58
2023-02-12T10:36:37.005Z,43.72
2023-02-12T10:42:16.487Z,40.35
2023-02-12T10:44:42.869Z,45.17
2023-02-12T10:47:18.464Z,44.88
2023-02-12T10:49:45.112Z,47.30
2023-02-12T10:52:19.185Z,46.35
2023-02-12T10:54:49.364Z,47.33
2023-02-12T10:57:18.540Z,46.80
2023-02-12T10:59:47.069Z,48.42
2023-02-12T11:02:27.000Z,49.17
2023-02-12T11:04:54.818Z,48.47
2023-02-12T11:07:22.309Z,45.08
2023-02-12T11:09:50.524Z,49.67
2023-02-12T11:12:36.744Z,48.13
2023-02-12T11:15:07.612Z,46.55
2023-02-12T11:17:40.256Z,55.67
2023-02-12T11:20:15.812Z,51.40
2023-02-12T11:23:01.790Z,50.10
2023-02-12T11:25:33.805Z,48.63
2023-02-12T11:28:17.790Z,44.83
2023-02-12T11:30:55.548Z,48.90
2023-02-12T11:33:34.492Z,48.67
2023-02-12T11:36:15.040Z,47.65
2023-02-12T11:38:51.584Z,47.38
2023-02-12T11:41:26.928Z,47.17
2023-02-12T11:43:53.777Z,47.67
2023-02-12T11:46:26.644Z,46.60
2023-02-12T11:48:55.771Z,46.63
2023-02-12T11:51:29.224Z,47.90
2023-02-12T11:53:59.481Z,47.83
2023-02-12T11:56:41.533Z,47.72
2023-02-12T11:59:36.973Z,50.50
2023-02-12T12:02:21.999Z,46.92
2023-02-12T12:04:51.908Z,44.80
2023-02-12T12:07:28.231Z,44.90
2023-02-12T12:10:01.298Z,43.78
2023-02-12T12:12:43.924Z,43.72
2023-02-12T12:15:37.298Z,44.35
2023-02-12T12:18:57.530Z,42.15
2023-02-12T12:21:42.378Z,41.60
2023-02-12T12:24:14.747Z,42.15
2023-02-12T12:26:47.549Z,44.10
2023-02-12T12:29:22.068Z,40.50
2023-02-12T12:31:59.986Z,45.55
2023-02-12T12:34:28.164Z,44.42
2023-02-12T12:37:32.054Z,42.55
2023-02-12T12:40:17.181Z,40.55
2023-02-12T12:43:01.876Z,44.35
2023-02-12T12:46:00.576Z,43.58
2023-02-12T12:48:59.040Z,41.60
2023-02-12T12:51:40.935Z,39.85
2023-02-12T12:54:25.617Z,41.92
2023-02-12T12:57:05.135Z,42.35
2023-02-12T13:00:02.305Z,41.20
2023-02-12T13:02:38.217Z,42.58
2023-02-12T13:05:19.869Z,40.80
2023-02-12T13:08:04.562Z,41.00
2023-02-12T13:10:49.281Z,41.25
2023-02-12T13:13:20.691Z,41.65
2023-02-12T13:16:19.214Z,40.55
2023-02-12T13:19:09.003Z,42.17
2023-02-12T13:21:44.376Z,42.10
2023-02-12T13:24:38.613Z,43.30
2023-02-12T13:27:12.777Z,41.92
2023-02-12T13:29:44.845Z,40.05
2023-02-12T13:32:19.956Z,41.30
2023-02-12T13:34:47.014Z,42.13
2023-02-12T13:37:19.784Z,40.38
2023-02-12T13:39:49.092Z,40.90
2023-02-12T13:42:46.579Z,40.58
2023-02-12T13:45:48.232Z,38.85
2023-02-12T13:48:35.739Z,39.13
2023-02-12T13:51:15.267Z,39.85
2023-02-12T13:53:57.604Z,35.63
2023-02-12T13:56:42.846Z,32.95
2023-02-12T13:59:34.160Z,34.00
2023-02-12T14:02:24.994Z,29.55
2023-02-12T14:04:56.823Z,28.63
2023-02-12T14:07:24.398Z,28.13
2023-02-12T14:09:50.675Z,26.90
2023-02-12T14:12:40.916Z,27.20
2023-02-12T14:15:32.656Z,27.08
2023-02-12T14:18:01.853Z,46.15
2023-02-12T14:20:32.307Z,46.22
2023-02-12T14:23:04.472Z,41.45
2023-02-12T14:25:39.900Z,38.25
2023-02-12T14:28:28.812Z,31.27
2023-02-12T14:31:23.231Z,28.33
2023-02-12T14:34:11.842Z,27.73
2023-02-12T14:36:46.399Z,26.92
2023-02-12T14:39:18.799Z,27.58
2023-02-12T14:42:07.423Z,27.38
2023-02-12T14:44:38.544Z,25.45
2023-02-12T14:47:36.276Z,25.55
2023-02-12T14:50:12.547Z,25.70
2023-02-12T14:52:42.336Z,27.05
2023-02-12T14:55:24.481Z,30.42
2023-02-12T14:57:55.504Z,27.17
2023-02-12T15:00:34.364Z,30.15
2023-02-12T15:03:12.679Z,35.90
2023-02-12T15:05:56.016Z,33.55
2023-02-12T15:08:22.390Z,33.15
2023-02-12T15:10:52.484Z,30.27
2023-02-12T15:13:30.079Z,28.38
2023-02-12T15:16:15.027Z,40.35
2023-02-12T15:18:41.336Z,33.38
2023-02-12T15:21:20.786Z,29.83
2023-02-12T15:23:57.052Z,28.95
2023-02-12T15:26:27.287Z,42.03
2023-02-12T15:28:55.356Z,45.38
2023-02-12T15:31:27.139Z,40.92
2023-02-12T15:33:56.348Z,35.80
2023-02-12T15:36:25.255Z,29.88
2023-02-12T15:38:54.908Z,26.08
2023-02-12T15:41:48.015Z,31.88
2023-02-12T15:44:32.079Z,28.58
2023-02-12T15:47:14.421Z,26.73
2023-02-12T15:49:42.325Z,25.73
2023-02-12T15:52:17.416Z,23.85
2023-02-12T15:54:45.807Z,23.15
2023-02-12T15:57:19.248Z,23.85
2023-02-12T15:59:53.656Z,23.55
2023-02-12T16:02:25.326Z,21.23
2023-02-12T16:04:51.893Z,22.38
2023-02-12T16:07:19.454Z,21.20
2023-02-12T16:09:46.771Z,19.40
2023-02-12T16:12:15.494Z,19.33
2023-02-12T16:14:50.727Z,17.10
2023-02-12T16:17:27.408Z,15.88
2023-02-12T16:20:19.756Z,15.23
2023-02-12T16:22:49.092Z,14.98
2023-02-12T16:25:16.969Z,14.55
2023-02-12T16:27:57.916Z,13.50
2023-02-12T16:30:27.434Z,14.15
2023-02-12T16:32:54.334Z,13.57
2023-02-12T16:35:33.517Z,13.68
2023-02-12T16:38:03.274Z,12.85
2023-02-12T16:40:33.748Z,11.20
2023-02-12T16:43:22.021Z,11.40
2023-02-12T16:45:49.538Z,11.57
2023-02-12T16:48:20.163Z,10.80
2023-02-12T16:50:52.910Z,12.00
2023-02-12T16:53:26.974Z,12.30
2023-02-12T16:55:53.528Z,12.93
2023-02-12T16:58:19.862Z,17.98
2023-02-12T17:00:46.445Z,19.60
2023-02-12T17:03:14.239Z,19.63
2023-02-12T17:05:43.006Z,16.23
2023-02-12T17:08:22.071Z,14.63
2023-02-12T17:10:48.938Z,13.70
2023-02-12T17:13:16.316Z,12.48
2023-02-12T17:15:49.627Z,11.80
2023-02-12T17:18:18.126Z,12.30
2023-02-12T17:20:51.086Z,13.32
2023-02-12T17:23:17.498Z,12.80
2023-02-12T17:25:43.847Z,14.30
2023-02-12T17:28:10.238Z,17.85
2023-02-12T17:30:37.319Z,17.88
2023-02-12T17:33:04.290Z,24.52
2023-02-12T17:35:30.637Z,26.80
2023-02-12T17:37:56.958Z,21.00
2023-02-12T17:40:23.262Z,24.48
2023-02-12T17:42:50.165Z,22.85
2023-02-12T17:45:17.159Z,19.88
2023-02-12T17:47:43.448Z,17.05
2023-02-12T17:50:14.524Z,19.95
2023-02-12T17:52:41.467Z,19.27
2023-02-12T17:55:10.500Z,21.55
2023-02-12T17:57:37.347Z,27.80
2023-02-12T18:00:05.972Z,24.63
2023-02-12T18:02:37.105Z,21.92
2023-02-12T18:05:04.347Z,17.95
2023-02-12T18:07:35.029Z,17.13
2023-02-12T18:10:01.852Z,16.40
2023-02-12T18:12:30.546Z,15.32
2023-02-12T18:14:58.751Z,14.00
2023-02-12T18:17:25.757Z,14.63
2023-02-12T18:19:53.317Z,14.23
2023-02-12T18:22:20.043Z,15.02
2023-02-12T18:24:46.490Z,14.40
2023-02-12T18:27:14.034Z,15.13
2023-02-12T18:29:40.956Z,14.98
2023-02-12T18:32:07.894Z,16.75
2023-02-12T18:34:34.521Z,16.52
2023-02-12T18:37:00.871Z,18.60
2023-02-12T18:39:27.174Z,18.35
2023-02-12T18:41:53.490Z,16.52
2023-02-12T18:44:19.881Z,19.40
2023-02-12T18:46:46.382Z,18.45
2023-02-12T18:49:13.986Z,18.85
2023-02-12T18:51:40.935Z,31.92
2023-02-12T18:54:10.703Z,26.17
2023-02-12T18:56:40.785Z,24.23
2023-02-12T18:59:08.069Z,20.27
2023-02-12T19:01:35.843Z,21.27
2023-02-12T19:04:05.142Z,21.88
2023-02-12T19:06:33.442Z,22.23
2023-02-12T19:09:03.090Z,24.10
2023-02-12T19:11:30.474Z,22.75
2023-02-12T19:13:57.246Z,22.10
2023-02-12T19:16:24.938Z,22.48
2023-02-12T19:18:54.702Z,24.13
2023-02-12T19:21:22.508Z,26.55
2023-02-12T19:23:52.290Z,26.65
2023-02-12T19:26:18.676Z,23.85
2023-02-12T19:28:45.121Z,33.85
2023-02-12T19:31:15.958Z,52.33
2023-02-12T19:33:43.415Z,49.17
2023-02-12T19:36:12.468Z,46.10
2023-02-12T19:38:39.410Z,49.97
2023-02-12T19:41:18.853Z,52.85
2023-02-12T19:43:45.688Z,47.60
2023-02-12T19:46:17.259Z,36.42
2023-02-12T19:48:45.104Z,27.95
2023-02-12T19:51:17.331Z,25.65
2023-02-12T19:53:44.298Z,20.83
2023-02-12T19:56:10.855Z,24.88
2023-02-12T19:58:37.836Z,28.40
2023-02-12T20:01:22.051Z,27.80
2023-02-12T20:03:49.458Z,29.23
2023-02-12T20:06:22.758Z,25.45
2023-02-12T20:08:49.506Z,21.45
2023-02-12T20:11:19.420Z,20.70
2023-02-12T20:13:46.004Z,19.60
2023-02-12T20:16:18.204Z,17.13
2023-02-12T20:18:46.195Z,17.65
2023-02-12T20:21:16.153Z,16.60
2023-02-12T20:23:43.157Z,15.13
2023-02-12T20:26:11.411Z,17.23
2023-02-12T20:28:38.614Z,28.67
2023-02-12T20:31:17.320Z,33.92
2023-02-12T20:33:44.694Z,29.52
2023-02-12T20:36:12.610Z,30.10
2023-02-12T20:38:40.819Z,30.02
2023-02-12T20:41:09.212Z,21.55
2023-02-12T20:43:36.237Z,18.40
2023-02-12T20:46:14.606Z,18.35
2023-02-12T20:48:41.998Z,18.48
2023-02-12T20:51:11.148Z,16.75
2023-02-12T20:53:37.572Z,17.35
2023-02-12T20:56:06.428Z,16.35
2023-02-12T20:58:32.889Z,18.77
2023-02-12T21:01:07.052Z,16.88
2023-02-12T21:03:33.859Z,17.33
2023-02-12T21:06:00.727Z,19.55
2023-02-12T21:08:27.247Z,17.60
2023-02-12T21:11:24.490Z,22.05
2023-02-12T21:13:59.271Z,18.33
2023-02-12T21:16:34.643Z,17.10
2023-02-12T21:19:01.350Z,18.60
2023-02-12T21:21:30.867Z,16.00
2023-02-12T21:23:58.893Z,17.30
2023-02-12T21:26:27.672Z,17.80
2023-02-12T21:28:56.146Z,18.20
2023-02-12T21:31:25.633Z,17.25
2023-02-12T21:33:54.069Z,17.92
2023-02-12T21:36:24.146Z,21.98
2023-02-12T21:38:51.724Z,18.88
2023-02-12T21:41:22.065Z,16.60
2023-02-12T21:43:54.219Z,17.50
2023-02-12T21:46:22.279Z,18.92
2023-02-12T21:48:49.653Z,20.30
2023-02-12T21:51:37.844Z,19.13
2023-02-12T21:54:08.353Z,22.25
2023-02-12T21:56:39.984Z,18.80
2023-02-12T21:59:08.540Z,19.67
2023-02-12T22:01:36.616Z,17.95
2023-02-12T22:04:05.063Z,16.88
2023-02-12T22:06:31.385Z,15.82
2023-02-12T22:09:03.429Z,16.73
2023-02-12T22:11:29.740Z,17.35
2023-02-12T22:13:56.043Z,15.93
2023-02-12T22:16:25.379Z,14.98
2023-02-12T22:18:59.064Z,14.93
2023-02-12T22:21:27.697Z,18.23
2023-02-12T22:23:54.811Z,15.25
2023-02-12T22:26:26.487Z,15.77
2023-02-12T22:28:55.704Z,16.02
2023-02-12T22:31:25.852Z,14.98
2023-02-12T22:33:55.753Z,15.93
2023-02-12T22:36:24.905Z,14.23
2023-02-12T22:38:53.147Z,14.98
2023-02-12T22:41:20.584Z,14.13
2023-02-12T22:43:47.638Z,15.77
2023-02-12T22:46:15.013Z,15.00
2023-02-12T22:48:42.014Z,16.27
2023-02-12T22:51:20.853Z,15.60
2023-02-12T22:53:47.658Z,15.73
2023-02-12T22:56:14.694Z,15.13
2023-02-12T22:58:41.337Z,15.98
2023-02-12T23:01:10.261Z,20.35
2023-02-12T23:03:39.569Z,21.52
2023-02-12T23:06:10.030Z,22.17
2023-02-12T23:08:36.805Z,21.05
2023-02-12T23:11:03.228Z,21.80
2023-02-12T23:13:30.439Z,16.63
2023-02-12T23:15:57.904Z,16.65
2023-02-12T23:18:24.974Z,16.85
2023-02-12T23:20:52.265Z,19.67
2023-02-12T23:23:20.113Z,21.27
2023-02-12T23:25:46.734Z,19.45
2023-02-12T23:28:13.636Z,18.67
2023-02-12T23:30:40.060Z,18.95
2023-02-12T23:33:06.487Z,18.95
2023-02-12T23:35:33.030Z,19.40
2023-02-12T23:37:59.491Z,19.60
2023-02-12T23:40:25.807Z,19.55
2023-02-12T23:42:52.223Z,19.00
2023-02-12T23:45:18.559Z,19.92
2023-02-12T23:47:44.857Z,19.63
2023-02-12T23:50:11.212Z,19.92
2023-02-12T23:52:37.613Z,21.67
2023-02-12T23:55:04.246Z,27.33
2023-02-12T23:57:30.653Z,33.13
2023-02-12T23:59:56.997Z,34.63
